sensor_id;sensor_type;location;lat;lon;timestamp;temperature;humidity
81488;DHT22;70897;52.464;13.428;2024-02-21T00:02:41;7.80;99.90
81488;DHT22;70897;52.464;13.428;2024-02-21T00:05:26;7.90;99.90
81488;DHT22;70897;52.464;13.428;2024-02-21T00:08:11;7.80;99.90
81488;DHT22;70897;52.464;13.428;2024-02-21T00:10:56;7.80;99.90
81488;DHT22;70897;52.464;13.428;2024-02-21T00:13:40;7.80;99.90
81488;DHT22;70897;52.464;13.428;2024-02-21T00:16:26;7.80;99.90
81488;DHT22;70897;52.464;13.428;2024-02-21T00:19:11;7.80;99.90
81488;DHT22;70897;52.464;13.428;2024-02-21T00:21:56;7.80;99.90
81488;DHT22;70897;52.464;13.428;2024-02-21T00:24:41;7.80;99.90
81488;DHT22;70897;52.464;13.428;2024-02-21T00:27:26;7.80;99.90
81488;DHT22;70897;52.464;13.428;2024-02-21T00:30:11;7.80;99.90
81488;DHT22;70897;52.464;13.428;2024-02-21T00:32:57;7.80;99.90
81488;DHT22;70897;52.464;13.428;2024-02-21T00:35:42;7.80;99.90
81488;DHT22;70897;52.464;13.428;2024-02-21T00:38:27;7.80;99.90
81488;DHT22;70897;52.464;13.428;2024-02-21T00:41:12;7.70;99.90
81488;DHT22;70897;52.464;13.428;2024-02-21T00:43:57;7.70;99.90
81488;DHT22;70897;52.464;13.428;2024-02-21T00:46:42;7.70;99.90
81488;DHT22;70897;52.464;13.428;2024-02-21T00:49:27;7.70;99.90
81488;DHT22;70897;52.464;13.428;2024-02-21T00:52:12;7.60;99.90
81488;DHT22;70897;52.464;13.428;2024-02-21T00:54:57;7.60;99.90
81488;DHT22;70897;52.464;13.428;2024-02-21T00:57:42;7.70;99.90
81488;DHT22;70897;52.464;13.428;2024-02-21T01:00:27;7.70;99.90
81488;DHT22;70897;52.464;13.428;2024-02-21T01:03:12;7.80;99.90
81488;DHT22;70897;52.464;13.428;2024-02-21T01:05:57;7.80;99.90
81488;DHT22;70897;52.464;13.428;2024-02-21T01:08:42;7.80;99.90
81488;DHT22;70897;52.464;13.428;2024-02-21T01:11:27;7.80;99.90
81488;DHT22;70897;52.464;13.428;2024-02-21T01:14:12;7.80;99.90
81488;DHT22;70897;52.464;13.428;2024-02-21T01:16:57;7.80;99.90
81488;DHT22;70897;52.464;13.428;2024-02-21T01:19:42;7.90;99.90
81488;DHT22;70897;52.464;13.428;2024-02-21T01:22:27;7.90;99.90
81488;DHT22;70897;52.464;13.428;2024-02-21T01:25:13;7.90;99.90
81488;DHT22;70897;52.464;13.428;2024-02-21T01:27:58;7.90;99.90
81488;DHT22;70897;52.464;13.428;2024-02-21T01:30:43;7.90;99.90
81488;DHT22;70897;52.464;13.428;2024-02-21T01:33:28;7.90;99.90
81488;DHT22;70897;52.464;13.428;2024-02-21T01:36:18;7.80;99.90
81488;DHT22;70897;52.464;13.428;2024-02-21T01:39:04;7.90;99.90
81488;DHT22;70897;52.464;13.428;2024-02-21T01:41:49;8.00;99.90
81488;DHT22;70897;52.464;13.428;2024-02-21T01:44:34;8.00;99.90
81488;DHT22;70897;52.464;13.428;2024-02-21T01:47:19;8.00;99.90
81488;DHT22;70897;52.464;13.428;2024-02-21T01:50:05;8.00;99.90
81488;DHT22;70897;52.464;13.428;2024-02-21T01:52:51;8.10;99.90
81488;DHT22;70897;52.464;13.428;2024-02-21T01:55:36;8.10;99.90
81488;DHT22;70897;52.464;13.428;2024-02-21T01:58:21;8.10;99.90
81488;DHT22;70897;52.464;13.428;2024-02-21T02:01:09;8.10;99.90
81488;DHT22;70897;52.464;13.428;2024-02-21T02:03:55;8.00;99.90
81488;DHT22;70897;52.464;13.428;2024-02-21T02:06:40;8.00;99.90
81488;DHT22;70897;52.464;13.428;2024-02-21T02:09:26;8.00;99.90
81488;DHT22;70897;52.464;13.428;2024-02-21T02:12:11;8.00;99.90
81488;DHT22;70897;52.464;13.428;2024-02-21T02:15:03;8.00;99.90
81488;DHT22;70897;52.464;13.428;2024-02-21T02:17:51;7.90;99.90
81488;DHT22;70897;52.464;13.428;2024-02-21T02:20:36;7.90;99.90
81488;DHT22;70897;52.464;13.428;2024-02-21T02:23:26;7.90;99.90
81488;DHT22;70897;52.464;13.428;2024-02-21T02:26:12;7.80;99.90
81488;DHT22;70897;52.464;13.428;2024-02-21T02:28:57;7.70;99.90
81488;DHT22;70897;52.464;13.428;2024-02-21T02:31:43;7.60;99.90
81488;DHT22;70897;52.464;13.428;2024-02-21T02:34:28;7.50;99.90
81488;DHT22;70897;52.464;13.428;2024-02-21T02:37:13;7.50;99.90
81488;DHT22;70897;52.464;13.428;2024-02-21T02:39:58;7.50;99.90
81488;DHT22;70897;52.464;13.428;2024-02-21T02:42:43;7.40;99.90
81488;DHT22;70897;52.464;13.428;2024-02-21T02:45:28;7.40;99.90
81488;DHT22;70897;52.464;13.428;2024-02-21T02:48:13;7.30;99.90
81488;DHT22;70897;52.464;13.428;2024-02-21T02:50:58;7.30;99.90
81488;DHT22;70897;52.464;13.428;2024-02-21T02:53:43;7.30;99.90
81488;DHT22;70897;52.464;13.428;2024-02-21T02:56:28;7.30;99.90
81488;DHT22;70897;52.464;13.428;2024-02-21T02:59:13;7.30;99.90
81488;DHT22;70897;52.464;13.428;2024-02-21T03:01:58;7.30;99.90
81488;DHT22;70897;52.464;13.428;2024-02-21T03:04:44;7.30;99.90
81488;DHT22;70897;52.464;13.428;2024-02-21T03:07:29;7.30;99.90
81488;DHT22;70897;52.464;13.428;2024-02-21T03:10:14;7.30;99.90
81488;DHT22;70897;52.464;13.428;2024-02-21T03:13:01;7.30;99.90
81488;DHT22;70897;52.464;13.428;2024-02-21T03:15:46;7.20;99.90
81488;DHT22;70897;52.464;13.428;2024-02-21T03:18:31;7.30;99.90
81488;DHT22;70897;52.464;13.428;2024-02-21T03:21:16;7.20;99.90
81488;DHT22;70897;52.464;13.428;2024-02-21T03:24:01;7.30;99.90
81488;DHT22;70897;52.464;13.428;2024-02-21T03:26:46;7.20;99.90
81488;DHT22;70897;52.464;13.428;2024-02-21T03:29:35;7.30;99.90
81488;DHT22;70897;52.464;13.428;2024-02-21T03:32:20;7.30;99.90
81488;DHT22;70897;52.464;13.428;2024-02-21T03:35:05;7.30;99.90
81488;DHT22;70897;52.464;13.428;2024-02-21T03:37:50;7.20;99.90
81488;DHT22;70897;52.464;13.428;2024-02-21T03:40:36;7.20;99.90
81488;DHT22;70897;52.464;13.428;2024-02-21T03:43:21;7.20;99.90
81488;DHT22;70897;52.464;13.428;2024-02-21T03:46:06;7.20;99.90
81488;DHT22;70897;52.464;13.428;2024-02-21T03:48:51;7.20;99.90
81488;DHT22;70897;52.464;13.428;2024-02-21T03:51:37;7.20;99.90
81488;DHT22;70897;52.464;13.428;2024-02-21T03:54:22;7.20;99.90
81488;DHT22;70897;52.464;13.428;2024-02-21T03:57:07;7.10;99.90
81488;DHT22;70897;52.464;13.428;2024-02-21T03:59:52;7.10;99.90
81488;DHT22;70897;52.464;13.428;2024-02-21T04:02:37;7.10;99.90
81488;DHT22;70897;52.464;13.428;2024-02-21T04:05:22;7.10;99.90
81488;DHT22;70897;52.464;13.428;2024-02-21T04:08:07;7.10;99.90
81488;DHT22;70897;52.464;13.428;2024-02-21T04:10:53;7.10;99.90
81488;DHT22;70897;52.464;13.428;2024-02-21T04:13:38;7.10;99.90
81488;DHT22;70897;52.464;13.428;2024-02-21T04:16:23;7.00;99.90
81488;DHT22;70897;52.464;13.428;2024-02-21T04:19:08;7.00;99.90
81488;DHT22;70897;52.464;13.428;2024-02-21T04:21:52;7.00;99.90
81488;DHT22;70897;52.464;13.428;2024-02-21T04:24:38;7.00;99.90
81488;DHT22;70897;52.464;13.428;2024-02-21T04:27:22;7.00;99.90
81488;DHT22;70897;52.464;13.428;2024-02-21T04:30:09;7.00;99.90
81488;DHT22;70897;52.464;13.428;2024-02-21T04:32:54;7.00;99.90
81488;DHT22;70897;52.464;13.428;2024-02-21T04:35:39;7.00;99.90
81488;DHT22;70897;52.464;13.428;2024-02-21T04:38:24;7.00;99.90
81488;DHT22;70897;52.464;13.428;2024-02-21T04:41:09;7.00;99.90
81488;DHT22;70897;52.464;13.428;2024-02-21T04:43:54;7.10;99.90
81488;DHT22;70897;52.464;13.428;2024-02-21T04:46:42;7.00;99.90
81488;DHT22;70897;52.464;13.428;2024-02-21T04:49:27;7.10;99.90
81488;DHT22;70897;52.464;13.428;2024-02-21T04:52:12;7.10;99.90
81488;DHT22;70897;52.464;13.428;2024-02-21T04:54:57;7.10;99.90
81488;DHT22;70897;52.464;13.428;2024-02-21T04:57:42;7.10;99.90
81488;DHT22;70897;52.464;13.428;2024-02-21T05:00:27;7.10;99.90
81488;DHT22;70897;52.464;13.428;2024-02-21T05:03:12;7.10;99.90
81488;DHT22;70897;52.464;13.428;2024-02-21T05:05:57;7.10;99.90
81488;DHT22;70897;52.464;13.428;2024-02-21T05:08:42;7.10;99.90
81488;DHT22;70897;52.464;13.428;2024-02-21T05:11:27;7.10;99.90
81488;DHT22;70897;52.464;13.428;2024-02-21T05:14:12;7.10;99.90
81488;DHT22;70897;52.464;13.428;2024-02-21T05:16:57;7.00;99.90
81488;DHT22;70897;52.464;13.428;2024-02-21T05:19:42;7.10;99.90
81488;DHT22;70897;52.464;13.428;2024-02-21T05:22:27;7.10;99.90
81488;DHT22;70897;52.464;13.428;2024-02-21T05:25:12;7.10;99.90
81488;DHT22;70897;52.464;13.428;2024-02-21T05:27:57;7.10;99.90
81488;DHT22;70897;52.464;13.428;2024-02-21T05:30:46;7.10;99.90
81488;DHT22;70897;52.464;13.428;2024-02-21T05:33:31;7.10;99.90
81488;DHT22;70897;52.464;13.428;2024-02-21T05:36:17;7.10;99.90
81488;DHT22;70897;52.464;13.428;2024-02-21T05:39:02;7.10;99.90
81488;DHT22;70897;52.464;13.428;2024-02-21T05:41:47;7.10;99.90
81488;DHT22;70897;52.464;13.428;2024-02-21T05:44:32;7.10;99.90
81488;DHT22;70897;52.464;13.428;2024-02-21T05:47:17;7.10;99.90
81488;DHT22;70897;52.464;13.428;2024-02-21T05:50:02;7.10;99.90
81488;DHT22;70897;52.464;13.428;2024-02-21T05:52:47;7.10;99.90
81488;DHT22;70897;52.464;13.428;2024-02-21T05:55:32;7.20;99.90
81488;DHT22;70897;52.464;13.428;2024-02-21T05:58:17;7.20;99.90
81488;DHT22;70897;52.464;13.428;2024-02-21T06:01:02;7.20;99.90
81488;DHT22;70897;52.464;13.428;2024-02-21T06:03:48;7.20;99.90
81488;DHT22;70897;52.464;13.428;2024-02-21T06:06:33;7.20;99.90
81488;DHT22;70897;52.464;13.428;2024-02-21T06:09:18;7.20;99.90
81488;DHT22;70897;52.464;13.428;2024-02-21T06:12:03;7.20;99.90
81488;DHT22;70897;52.464;13.428;2024-02-21T06:14:48;7.20;99.90
81488;DHT22;70897;52.464;13.428;2024-02-21T06:17:33;7.20;99.90
81488;DHT22;70897;52.464;13.428;2024-02-21T06:20:18;7.20;99.90
81488;DHT22;70897;52.464;13.428;2024-02-21T06:23:03;7.20;99.90
81488;DHT22;70897;52.464;13.428;2024-02-21T06:25:48;7.20;99.90
81488;DHT22;70897;52.464;13.428;2024-02-21T06:28:33;7.30;99.90
81488;DHT22;70897;52.464;13.428;2024-02-21T06:31:18;7.30;99.90
81488;DHT22;70897;52.464;13.428;2024-02-21T06:34:03;7.30;99.90
81488;DHT22;70897;52.464;13.428;2024-02-21T06:36:49;7.30;99.90
81488;DHT22;70897;52.464;13.428;2024-02-21T06:39:34;7.40;99.90
81488;DHT22;70897;52.464;13.428;2024-02-21T06:42:24;7.40;99.90
81488;DHT22;70897;52.464;13.428;2024-02-21T06:45:09;7.40;99.90
81488;DHT22;70897;52.464;13.428;2024-02-21T06:47:54;7.40;99.90
81488;DHT22;70897;52.464;13.428;2024-02-21T06:50:39;7.40;99.90
81488;DHT22;70897;52.464;13.428;2024-02-21T06:53:24;7.50;99.90
81488;DHT22;70897;52.464;13.428;2024-02-21T06:56:10;7.50;99.90
81488;DHT22;70897;52.464;13.428;2024-02-21T06:58:55;7.50;99.90
81488;DHT22;70897;52.464;13.428;2024-02-21T07:01:44;7.50;99.90
81488;DHT22;70897;52.464;13.428;2024-02-21T07:04:29;7.50;99.90
81488;DHT22;70897;52.464;13.428;2024-02-21T07:07:14;7.50;99.90
81488;DHT22;70897;52.464;13.428;2024-02-21T07:09:59;7.50;99.90
81488;DHT22;70897;52.464;13.428;2024-02-21T07:12:44;7.50;99.90
81488;DHT22;70897;52.464;13.428;2024-02-21T07:15:29;7.50;99.90
81488;DHT22;70897;52.464;13.428;2024-02-21T07:18:15;7.50;99.90
81488;DHT22;70897;52.464;13.428;2024-02-21T07:21:00;7.60;99.90
81488;DHT22;70897;52.464;13.428;2024-02-21T07:23:45;7.60;99.90
81488;DHT22;70897;52.464;13.428;2024-02-21T07:26:31;7.60;99.90
81488;DHT22;70897;52.464;13.428;2024-02-21T07:29:16;7.60;99.90
81488;DHT22;70897;52.464;13.428;2024-02-21T07:32:02;7.50;99.90
81488;DHT22;70897;52.464;13.428;2024-02-21T07:34:47;7.60;99.90
81488;DHT22;70897;52.464;13.428;2024-02-21T07:37:32;7.60;99.90
81488;DHT22;70897;52.464;13.428;2024-02-21T07:40:17;7.60;99.90
81488;DHT22;70897;52.464;13.428;2024-02-21T07:43:02;7.70;99.90
81488;DHT22;70897;52.464;13.428;2024-02-21T07:45:47;7.70;99.90
81488;DHT22;70897;52.464;13.428;2024-02-21T07:48:33;7.80;99.90
81488;DHT22;70897;52.464;13.428;2024-02-21T07:51:18;7.80;99.90
81488;DHT22;70897;52.464;13.428;2024-02-21T07:54:02;7.80;99.90
81488;DHT22;70897;52.464;13.428;2024-02-21T07:56:48;7.80;99.90
81488;DHT22;70897;52.464;13.428;2024-02-21T07:59:34;7.80;99.90
81488;DHT22;70897;52.464;13.428;2024-02-21T08:02:19;7.80;99.90
81488;DHT22;70897;52.464;13.428;2024-02-21T08:05:04;7.80;99.90
81488;DHT22;70897;52.464;13.428;2024-02-21T08:07:49;7.90;99.90
81488;DHT22;70897;52.464;13.428;2024-02-21T08:10:34;7.90;99.90
81488;DHT22;70897;52.464;13.428;2024-02-21T08:13:19;8.00;99.90
81488;DHT22;70897;52.464;13.428;2024-02-21T08:16:04;7.90;99.90
81488;DHT22;70897;52.464;13.428;2024-02-21T08:18:49;8.00;99.90
81488;DHT22;70897;52.464;13.428;2024-02-21T08:21:34;8.00;99.90
81488;DHT22;70897;52.464;13.428;2024-02-21T08:24:19;8.00;99.90
81488;DHT22;70897;52.464;13.428;2024-02-21T08:27:04;8.10;99.90
81488;DHT22;70897;52.464;13.428;2024-02-21T08:29:49;8.20;99.90
81488;DHT22;70897;52.464;13.428;2024-02-21T08:32:34;8.20;99.90
81488;DHT22;70897;52.464;13.428;2024-02-21T08:35:20;8.30;99.90
81488;DHT22;70897;52.464;13.428;2024-02-21T08:38:08;8.30;99.90
81488;DHT22;70897;52.464;13.428;2024-02-21T08:40:53;8.40;99.90
81488;DHT22;70897;52.464;13.428;2024-02-21T08:43:38;8.50;99.90
81488;DHT22;70897;52.464;13.428;2024-02-21T08:46:23;8.60;99.90
81488;DHT22;70897;52.464;13.428;2024-02-21T08:49:10;8.60;99.90
81488;DHT22;70897;52.464;13.428;2024-02-21T08:51:55;8.70;99.90
81488;DHT22;70897;52.464;13.428;2024-02-21T08:54:40;8.80;99.90
81488;DHT22;70897;52.464;13.428;2024-02-21T08:57:25;8.80;99.90
81488;DHT22;70897;52.464;13.428;2024-02-21T09:00:10;9.00;99.90
81488;DHT22;70897;52.464;13.428;2024-02-21T09:02:55;9.20;99.90
81488;DHT22;70897;52.464;13.428;2024-02-21T09:05:40;9.50;99.90
81488;DHT22;70897;52.464;13.428;2024-02-21T09:08:26;9.50;99.90
81488;DHT22;70897;52.464;13.428;2024-02-21T09:11:11;9.50;99.90
81488;DHT22;70897;52.464;13.428;2024-02-21T09:13:56;9.60;99.90
81488;DHT22;70897;52.464;13.428;2024-02-21T09:16:40;9.60;99.90
81488;DHT22;70897;52.464;13.428;2024-02-21T09:19:27;9.60;99.90
81488;DHT22;70897;52.464;13.428;2024-02-21T09:22:12;9.70;99.90
81488;DHT22;70897;52.464;13.428;2024-02-21T09:24:57;9.80;99.90
81488;DHT22;70897;52.464;13.428;2024-02-21T09:27:44;9.70;99.90
81488;DHT22;70897;52.464;13.428;2024-02-21T09:30:29;9.80;99.90
81488;DHT22;70897;52.464;13.428;2024-02-21T09:33:15;9.90;99.90
81488;DHT22;70897;52.464;13.428;2024-02-21T09:36:00;10.00;99.90
81488;DHT22;70897;52.464;13.428;2024-02-21T09:38:45;10.10;99.90
81488;DHT22;70897;52.464;13.428;2024-02-21T09:41:30;10.30;99.90
81488;DHT22;70897;52.464;13.428;2024-02-21T09:44:16;10.40;99.90
81488;DHT22;70897;52.464;13.428;2024-02-21T09:47:03;10.50;99.90
81488;DHT22;70897;52.464;13.428;2024-02-21T09:49:50;10.50;99.90
81488;DHT22;70897;52.464;13.428;2024-02-21T09:52:36;10.50;99.90
81488;DHT22;70897;52.464;13.428;2024-02-21T09:55:23;10.80;99.90
81488;DHT22;70897;52.464;13.428;2024-02-21T09:58:09;10.80;99.90
81488;DHT22;70897;52.464;13.428;2024-02-21T10:00:54;10.90;99.90
81488;DHT22;70897;52.464;13.428;2024-02-21T10:03:39;10.90;99.90
81488;DHT22;70897;52.464;13.428;2024-02-21T10:06:24;10.80;99.90
81488;DHT22;70897;52.464;13.428;2024-02-21T10:09:26;11.00;99.90
81488;DHT22;70897;52.464;13.428;2024-02-21T10:12:14;11.10;99.90
81488;DHT22;70897;52.464;13.428;2024-02-21T10:15:04;11.20;99.90
81488;DHT22;70897;52.464;13.428;2024-02-21T10:18:00;11.30;99.90
81488;DHT22;70897;52.464;13.428;2024-02-21T10:20:45;11.50;99.90
81488;DHT22;70897;52.464;13.428;2024-02-21T10:23:51;11.50;99.90
81488;DHT22;70897;52.464;13.428;2024-02-21T10:26:36;11.90;99.90
81488;DHT22;70897;52.464;13.428;2024-02-21T10:29:22;11.80;99.90
81488;DHT22;70897;52.464;13.428;2024-02-21T10:32:09;11.80;99.90
81488;DHT22;70897;52.464;13.428;2024-02-21T10:35:04;11.70;99.90
81488;DHT22;70897;52.464;13.428;2024-02-21T10:37:49;11.70;99.90
81488;DHT22;70897;52.464;13.428;2024-02-21T10:40:35;11.60;99.90
81488;DHT22;70897;52.464;13.428;2024-02-21T10:43:20;11.60;99.90
81488;DHT22;70897;52.464;13.428;2024-02-21T10:46:09;11.50;99.90
81488;DHT22;70897;52.464;13.428;2024-02-21T10:49:07;11.60;99.90
81488;DHT22;70897;52.464;13.428;2024-02-21T10:52:03;11.40;99.90
81488;DHT22;70897;52.464;13.428;2024-02-21T10:54:56;11.50;99.90
81488;DHT22;70897;52.464;13.428;2024-02-21T10:57:43;11.30;99.90
81488;DHT22;70897;52.464;13.428;2024-02-21T11:00:29;11.20;99.90
81488;DHT22;70897;52.464;13.428;2024-02-21T11:03:15;11.20;99.90
81488;DHT22;70897;52.464;13.428;2024-02-21T11:06:01;11.20;99.90
81488;DHT22;70897;52.464;13.428;2024-02-21T11:08:47;11.20;99.90
81488;DHT22;70897;52.464;13.428;2024-02-21T11:11:35;11.10;99.90
81488;DHT22;70897;52.464;13.428;2024-02-21T11:14:22;11.30;99.90
81488;DHT22;70897;52.464;13.428;2024-02-21T11:17:17;11.60;99.90
81488;DHT22;70897;52.464;13.428;2024-02-21T11:20:13;12.90;99.90
81488;DHT22;70897;52.464;13.428;2024-02-21T11:22:58;13.20;99.90
81488;DHT22;70897;52.464;13.428;2024-02-21T11:25:43;13.60;99.90
81488;DHT22;70897;52.464;13.428;2024-02-21T11:28:28;14.00;99.90
81488;DHT22;70897;52.464;13.428;2024-02-21T11:31:14;14.70;99.90
81488;DHT22;70897;52.464;13.428;2024-02-21T11:34:10;15.10;99.90
81488;DHT22;70897;52.464;13.428;2024-02-21T11:36:55;15.60;99.90
81488;DHT22;70897;52.464;13.428;2024-02-21T11:39:41;17.90;95.40
81488;DHT22;70897;52.464;13.428;2024-02-21T11:42:27;20.60;74.00
81488;DHT22;70897;52.464;13.428;2024-02-21T11:45:14;22.00;61.10
81488;DHT22;70897;52.464;13.428;2024-02-21T11:48:00;20.30;59.30
81488;DHT22;70897;52.464;13.428;2024-02-21T11:50:53;20.40;58.70
81488;DHT22;70897;52.464;13.428;2024-02-21T11:53:39;20.10;60.60
81488;DHT22;70897;52.464;13.428;2024-02-21T11:56:24;18.90;64.50
81488;DHT22;70897;52.464;13.428;2024-02-21T11:59:10;20.50;60.30
81488;DHT22;70897;52.464;13.428;2024-02-21T12:01:56;21.80;53.90
81488;DHT22;70897;52.464;13.428;2024-02-21T12:04:43;21.60;54.50
81488;DHT22;70897;52.464;13.428;2024-02-21T12:07:28;20.60;55.80
81488;DHT22;70897;52.464;13.428;2024-02-21T12:10:14;21.20;55.10
81488;DHT22;70897;52.464;13.428;2024-02-21T12:13:08;21.90;52.70
81488;DHT22;70897;52.464;13.428;2024-02-21T12:15:53;22.20;52.60
81488;DHT22;70897;52.464;13.428;2024-02-21T12:18:39;20.80;54.60
81488;DHT22;70897;52.464;13.428;2024-02-21T12:21:30;20.60;56.20
81488;DHT22;70897;52.464;13.428;2024-02-21T12:24:22;21.90;52.90
81488;DHT22;70897;52.464;13.428;2024-02-21T12:27:08;20.10;56.50
81488;DHT22;70897;52.464;13.428;2024-02-21T12:29:53;19.80;58.50
81488;DHT22;70897;52.464;13.428;2024-02-21T12:32:38;19.90;60.90
81488;DHT22;70897;52.464;13.428;2024-02-21T12:35:23;20.90;59.00
81488;DHT22;70897;52.464;13.428;2024-02-21T12:40:56;20.50;54.40
81488;DHT22;70897;52.464;13.428;2024-02-21T16:11:03;17.30;62.40
81488;DHT22;70897;52.464;13.428;2024-02-21T16:13:48;10.30;99.90
81488;DHT22;70897;52.464;13.428;2024-02-21T16:16:34;9.90;99.90
81488;DHT22;70897;52.464;13.428;2024-02-21T16:19:19;9.80;99.90
81488;DHT22;70897;52.464;13.428;2024-02-21T16:22:04;9.70;99.90
81488;DHT22;70897;52.464;13.428;2024-02-21T16:24:49;9.60;99.90
81488;DHT22;70897;52.464;13.428;2024-02-21T16:27:35;9.50;99.90
81488;DHT22;70897;52.464;13.428;2024-02-21T16:30:20;9.50;99.90
81488;DHT22;70897;52.464;13.428;2024-02-21T16:33:08;9.40;99.90
81488;DHT22;70897;52.464;13.428;2024-02-21T16:35:54;9.30;99.90
81488;DHT22;70897;52.464;13.428;2024-02-21T16:38:39;9.20;99.90
81488;DHT22;70897;52.464;13.428;2024-02-21T16:41:26;9.20;99.90
81488;DHT22;70897;52.464;13.428;2024-02-21T16:44:12;9.10;99.90
81488;DHT22;70897;52.464;13.428;2024-02-21T16:46:57;9.00;99.90
81488;DHT22;70897;52.464;13.428;2024-02-21T16:49:42;9.00;99.90
81488;DHT22;70897;52.464;13.428;2024-02-21T16:52:27;8.90;99.90
81488;DHT22;70897;52.464;13.428;2024-02-21T16:55:12;8.80;99.90
81488;DHT22;70897;52.464;13.428;2024-02-21T16:57:58;8.80;99.90
81488;DHT22;70897;52.464;13.428;2024-02-21T17:00:43;8.70;99.90
81488;DHT22;70897;52.464;13.428;2024-02-21T17:03:28;8.70;99.90
81488;DHT22;70897;52.464;13.428;2024-02-21T17:06:13;8.60;99.90
81488;DHT22;70897;52.464;13.428;2024-02-21T17:08:58;8.60;99.90
81488;DHT22;70897;52.464;13.428;2024-02-21T17:11:43;8.60;99.90
81488;DHT22;70897;52.464;13.428;2024-02-21T17:14:29;8.50;99.90
81488;DHT22;70897;52.464;13.428;2024-02-21T17:17:14;8.50;99.90
81488;DHT22;70897;52.464;13.428;2024-02-21T17:19:59;8.40;99.90
81488;DHT22;70897;52.464;13.428;2024-02-21T17:22:43;8.40;99.90
81488;DHT22;70897;52.464;13.428;2024-02-21T17:25:28;8.30;99.90
81488;DHT22;70897;52.464;13.428;2024-02-21T17:28:13;8.20;99.90
81488;DHT22;70897;52.464;13.428;2024-02-21T17:30:59;8.10;99.90
81488;DHT22;70897;52.464;13.428;2024-02-21T17:33:44;8.10;99.90
81488;DHT22;70897;52.464;13.428;2024-02-21T17:36:30;8.10;99.90
81488;DHT22;70897;52.464;13.428;2024-02-21T17:39:15;8.00;99.90
81488;DHT22;70897;52.464;13.428;2024-02-21T17:42:03;8.00;99.90
81488;DHT22;70897;52.464;13.428;2024-02-21T17:44:48;8.00;99.90
81488;DHT22;70897;52.464;13.428;2024-02-21T17:47:34;8.00;99.90
81488;DHT22;70897;52.464;13.428;2024-02-21T17:50:20;7.90;99.90
81488;DHT22;70897;52.464;13.428;2024-02-21T17:53:06;7.90;99.90
81488;DHT22;70897;52.464;13.428;2024-02-21T17:55:51;7.90;99.90
81488;DHT22;70897;52.464;13.428;2024-02-21T17:58:36;7.80;99.90
81488;DHT22;70897;52.464;13.428;2024-02-21T18:01:20;7.80;99.90
81488;DHT22;70897;52.464;13.428;2024-02-21T18:04:06;7.80;99.90
81488;DHT22;70897;52.464;13.428;2024-02-21T18:06:51;7.70;99.90
81488;DHT22;70897;52.464;13.428;2024-02-21T18:09:37;7.60;99.90
81488;DHT22;70897;52.464;13.428;2024-02-21T18:12:22;7.60;99.90
81488;DHT22;70897;52.464;13.428;2024-02-21T18:15:07;7.50;99.90
81488;DHT22;70897;52.464;13.428;2024-02-21T18:17:53;7.50;99.90
81488;DHT22;70897;52.464;13.428;2024-02-21T18:20:38;7.50;99.90
81488;DHT22;70897;52.464;13.428;2024-02-21T18:23:23;7.40;99.90
81488;DHT22;70897;52.464;13.428;2024-02-21T18:26:08;7.40;99.90
81488;DHT22;70897;52.464;13.428;2024-02-21T18:28:53;7.40;99.90
81488;DHT22;70897;52.464;13.428;2024-02-21T18:31:38;7.40;99.90
81488;DHT22;70897;52.464;13.428;2024-02-21T18:34:23;7.50;99.90
81488;DHT22;70897;52.464;13.428;2024-02-21T18:37:09;7.50;99.90
81488;DHT22;70897;52.464;13.428;2024-02-21T18:39:54;7.60;99.90
81488;DHT22;70897;52.464;13.428;2024-02-21T18:42:40;7.60;99.90
81488;DHT22;70897;52.464;13.428;2024-02-21T18:45:27;7.60;99.90
81488;DHT22;70897;52.464;13.428;2024-02-21T18:48:12;7.60;99.90
81488;DHT22;70897;52.464;13.428;2024-02-21T18:50:57;7.60;99.90
81488;DHT22;70897;52.464;13.428;2024-02-21T18:53:42;7.60;99.90
81488;DHT22;70897;52.464;13.428;2024-02-21T18:56:28;7.60;99.90
81488;DHT22;70897;52.464;13.428;2024-02-21T18:59:13;7.70;99.90
81488;DHT22;70897;52.464;13.428;2024-02-21T19:01:58;7.70;99.90
81488;DHT22;70897;52.464;13.428;2024-02-21T19:04:43;7.70;99.90
81488;DHT22;70897;52.464;13.428;2024-02-21T19:07:28;7.70;99.90
81488;DHT22;70897;52.464;13.428;2024-02-21T19:10:17;7.70;99.90
81488;DHT22;70897;52.464;13.428;2024-02-21T19:13:02;7.70;99.90
81488;DHT22;70897;52.464;13.428;2024-02-21T19:15:48;7.70;99.90
81488;DHT22;70897;52.464;13.428;2024-02-21T19:18:33;7.80;99.90
81488;DHT22;70897;52.464;13.428;2024-02-21T19:21:18;7.80;99.90
81488;DHT22;70897;52.464;13.428;2024-02-21T19:24:03;7.80;99.90
81488;DHT22;70897;52.464;13.428;2024-02-21T19:26:48;7.90;99.90
81488;DHT22;70897;52.464;13.428;2024-02-21T19:29:34;7.90;99.90
81488;DHT22;70897;52.464;13.428;2024-02-21T19:32:19;7.90;99.90
81488;DHT22;70897;52.464;13.428;2024-02-21T19:35:06;7.90;99.90
81488;DHT22;70897;52.464;13.428;2024-02-21T19:37:58;7.90;99.90
81488;DHT22;70897;52.464;13.428;2024-02-21T19:40:48;7.90;99.90
81488;DHT22;70897;52.464;13.428;2024-02-21T19:43:34;7.80;99.90
81488;DHT22;70897;52.464;13.428;2024-02-21T19:46:19;7.90;99.90
81488;DHT22;70897;52.464;13.428;2024-02-21T19:49:04;7.80;99.90
81488;DHT22;70897;52.464;13.428;2024-02-21T19:51:49;7.80;99.90
81488;DHT22;70897;52.464;13.428;2024-02-21T19:54:34;7.80;99.90
81488;DHT22;70897;52.464;13.428;2024-02-21T19:57:20;7.70;99.90
81488;DHT22;70897;52.464;13.428;2024-02-21T20:00:06;7.80;99.90
81488;DHT22;70897;52.464;13.428;2024-02-21T20:02:58;7.80;99.90
81488;DHT22;70897;52.464;13.428;2024-02-21T20:05:44;7.70;99.90
81488;DHT22;70897;52.464;13.428;2024-02-21T20:08:29;7.80;99.90
81488;DHT22;70897;52.464;13.428;2024-02-21T20:11:15;7.80;99.90
81488;DHT22;70897;52.464;13.428;2024-02-21T20:14:03;7.80;99.90
81488;DHT22;70897;52.464;13.428;2024-02-21T20:16:48;7.80;99.90
81488;DHT22;70897;52.464;13.428;2024-02-21T20:19:38;7.70;99.90
81488;DHT22;70897;52.464;13.428;2024-02-21T20:22:23;7.70;99.90
81488;DHT22;70897;52.464;13.428;2024-02-21T20:25:08;7.70;99.90
81488;DHT22;70897;52.464;13.428;2024-02-21T20:27:54;7.70;99.90
81488;DHT22;70897;52.464;13.428;2024-02-21T20:30:40;7.70;99.90
81488;DHT22;70897;52.464;13.428;2024-02-21T20:34:08;7.80;99.90
81488;DHT22;70897;52.464;13.428;2024-02-21T20:36:52;7.80;99.90
81488;DHT22;70897;52.464;13.428;2024-02-21T20:39:37;7.80;99.90
81488;DHT22;70897;52.464;13.428;2024-02-21T20:42:23;7.90;99.90
81488;DHT22;70897;52.464;13.428;2024-02-21T20:45:09;8.00;99.90
81488;DHT22;70897;52.464;13.428;2024-02-21T20:47:54;8.00;99.90
81488;DHT22;70897;52.464;13.428;2024-02-21T20:50:39;8.00;99.90
81488;DHT22;70897;52.464;13.428;2024-02-21T20:53:24;8.00;99.90
81488;DHT22;70897;52.464;13.428;2024-02-21T20:56:12;8.10;99.90